Time;durP1;ratioP1;P1;durP2;ratioP2;P2;SDS_P1;SDS_P2;PMS_P1;PMS_P2;Temp;Humidity;BMP_temperature;BMP_pressure;BME280_temperature;BME280_humidity;BME280_pressure;Samples;Min_cycle;Max_cycle;Signal;HPM_P1;HPM_P2
2023/06/28 00:01:05;;;;;;;9.15;6.75;;;;;;;17.06;nan;100459.91;5035831;28;20028;-69
2023/06/28 00:03:31;;;;;;;9.70;6.93;;;;;;;17.05;nan;100471.59;5035506;28;20018;-70
2023/06/28 00:05:56;;;;;;;8.70;6.82;;;;;;;17.03;nan;100474.53;5037566;28;20026;-69
2023/06/28 00:08:22;;;;;;;12.07;7.30;;;;;;;16.98;nan;100472.69;5036226;28;20025;-69
2023/06/28 00:10:49;;;;;;;10.68;6.95;;;;;;;16.89;nan;100466.28;5035989;28;20504;-68
2023/06/28 00:13:14;;;;;;;14.02;7.38;;;;;;;16.93;nan;100485.19;5033110;28;20013;-69
2023/06/28 00:15:39;;;;;;;8.80;6.95;;;;;;;16.92;nan;100492.34;5035513;28;20021;-70
2023/06/28 00:18:07;;;;;;;12.85;7.53;;;;;;;16.85;nan;100485.69;5042113;28;20027;-70
2023/06/28 00:20:33;;;;;;;10.55;7.07;;;;;;;16.83;nan;100482.50;5032631;28;20483;-70
2023/06/28 00:22:59;;;;;;;11.82;7.65;;;;;;;16.74;nan;100476.88;5034756;28;20013;-70
2023/06/28 00:25:25;;;;;;;11.95;7.50;;;;;;;16.74;nan;100480.34;5037397;28;21107;-70
2023/06/28 00:27:50;;;;;;;11.73;7.45;;;;;;;16.72;nan;100486.97;5038657;28;20045;-69
2023/06/28 00:30:16;;;;;;;14.13;7.07;;;;;;;16.67;nan;100481.66;5033312;28;20395;-69
2023/06/28 00:32:41;;;;;;;14.13;8.02;;;;;;;16.69;nan;100484.81;5036668;28;20048;-69
2023/06/28 00:35:07;;;;;;;10.70;6.75;;;;;;;16.64;nan;100480.31;5033837;28;20468;-70
2023/06/28 00:37:32;;;;;;;13.95;7.35;;;;;;;16.58;nan;100474.19;5037284;28;20018;-70
2023/06/28 00:39:58;;;;;;;13.25;7.68;;;;;;;16.58;nan;100465.41;5035448;28;20112;-70
2023/06/28 00:42:24;;;;;;;15.90;7.60;;;;;;;16.64;nan;100451.06;5035616;28;20029;-69
2023/06/28 00:44:49;;;;;;;11.27;7.35;;;;;;;16.63;nan;100451.34;5034867;28;20059;-69
2023/06/28 00:47:15;;;;;;;11.68;6.68;;;;;;;16.61;nan;100462.22;5033437;28;20087;-70
2023/06/28 00:49:42;;;;;;;11.68;6.80;;;;;;;16.56;nan;100455.03;5034447;28;20024;-69
2023/06/28 00:52:09;;;;;;;14.80;7.07;;;;;;;16.47;nan;100448.66;5034223;28;20022;-68
2023/06/28 00:54:35;;;;;;;14.57;7.05;;;;;;;16.51;nan;100460.34;5034199;28;20095;-70
2023/06/28 00:57:01;;;;;;;12.93;7.07;;;;;;;16.46;nan;100454.22;5038396;28;20019;-70
2023/06/28 00:59:26;;;;;;;10.10;6.93;;;;;;;16.52;nan;100437.22;5037783;28;20462;-70
2023/06/28 01:01:52;;;;;;;11.00;6.88;;;;;;;16.52;nan;100450.50;5041338;28;20530;-68
2023/06/28 01:04:18;;;;;;;10.55;6.95;;;;;;;16.46;nan;100438.28;5039433;28;20129;-68
2023/06/28 01:06:51;;;;;;;9.65;6.93;;;;;;;16.48;nan;100438.81;5040975;28;20100;-70
2023/06/28 01:09:18;;;;;;;9.98;6.80;;;;;;;16.46;nan;100436.41;5038980;28;20032;-68
2023/06/28 01:11:45;;;;;;;10.20;6.93;;;;;;;16.34;nan;100414.59;5038532;28;20045;-69
2023/06/28 01:14:11;;;;;;;15.40;7.32;;;;;;;16.40;nan;100423.38;5037720;28;20021;-70
2023/06/28 01:16:36;;;;;;;14.23;6.57;;;;;;;16.41;nan;100430.28;5041249;28;20009;-68
2023/06/28 01:19:05;;;;;;;10.40;6.28;;;;;;;16.32;nan;100422.03;5039574;28;20021;-70
2023/06/28 01:21:36;;;;;;;9.80;6.80;;;;;;;16.37;nan;100433.47;5037782;28;20079;-70
2023/06/28 01:24:02;;;;;;;10.30;6.85;;;;;;;16.37;nan;100451.28;5036591;28;20034;-70
2023/06/28 01:26:27;;;;;;;7.88;6.07;;;;;;;16.35;nan;100451.53;5045735;28;20024;-70
2023/06/28 01:28:53;;;;;;;13.23;6.40;;;;;;;16.28;nan;100434.22;5037256;28;20021;-69
2023/06/28 01:31:19;;;;;;;9.55;6.05;;;;;;;16.33;nan;100453.66;5036998;28;20025;-70
2023/06/28 01:33:46;;;;;;;10.05;6.45;;;;;;;16.34;nan;100444.63;5037956;28;20014;-70
2023/06/28 01:36:12;;;;;;;10.35;6.40;;;;;;;16.34;nan;100455.25;5036274;28;20392;-69
2023/06/28 01:38:39;;;;;;;13.98;6.35;;;;;;;16.26;nan;100455.78;5039583;28;20017;-69
2023/06/28 01:41:07;;;;;;;9.02;6.20;;;;;;;16.33;nan;100472.25;5038993;28;20013;-70
2023/06/28 01:43:33;;;;;;;10.15;6.25;;;;;;;16.31;nan;100453.13;5040180;28;20033;-70
2023/06/28 01:45:58;;;;;;;11.90;6.13;;;;;;;16.30;nan;100454.16;5035176;28;20025;-70
2023/06/28 01:48:25;;;;;;;10.65;6.80;;;;;;;16.31;nan;100457.66;5039501;28;20017;-69
2023/06/28 01:50:51;;;;;;;11.52;6.82;;;;;;;16.27;nan;100449.38;5035165;28;20021;-70
2023/06/28 01:53:17;;;;;;;12.30;6.22;;;;;;;16.30;nan;100459.47;5036413;28;20036;-70
2023/06/28 01:55:43;;;;;;;12.38;7.05;;;;;;;16.24;nan;100447.25;5036982;28;20546;-70
2023/06/28 01:58:08;;;;;;;12.18;5.90;;;;;;;16.25;nan;100448.06;5038276;28;20017;-69
2023/06/28 02:00:34;;;;;;;16.55;6.93;;;;;;;16.16;nan;100432.63;5043224;28;20420;-70
2023/06/28 02:02:59;;;;;;;10.77;6.47;;;;;;;16.17;nan;100444.84;5041216;28;20013;-70
2023/06/28 02:05:25;;;;;;;14.70;7.22;;;;;;;16.21;nan;100445.13;5037564;28;20472;-71
2023/06/28 02:07:50;;;;;;;21.33;7.13;;;;;;;16.13;nan;100429.69;5037834;28;20073;-70
2023/06/28 02:10:18;;;;;;;10.35;7.15;;;;;;;16.24;nan;100433.97;5039871;28;20454;-70
2023/06/28 02:12:43;;;;;;;10.40;6.90;;;;;;;16.25;nan;100432.09;5035431;28;20029;-71
2023/06/28 02:15:10;;;;;;;11.60;6.60;;;;;;;16.17;nan;100420.13;5037535;28;20017;-68
2023/06/28 02:17:36;;;;;;;9.70;6.78;;;;;;;16.25;nan;100432.09;5035768;28;20021;-68
2023/06/28 02:20:04;;;;;;;11.25;6.93;;;;;;;16.16;nan;100415.88;5036943;28;20383;-69
2023/06/28 02:22:29;;;;;;;8.35;6.43;;;;;;;16.21;nan;100421.22;5037885;28;20429;-68
2023/06/28 02:24:55;;;;;;;13.02;7.20;;;;;;;16.16;nan;100399.94;5035608;28;20033;-68
2023/06/28 02:27:20;;;;;;;13.88;6.95;;;;;;;16.19;nan;100406.59;5036592;28;20071;-68
2023/06/28 02:29:45;;;;;;;10.90;6.57;;;;;;;16.13;nan;100397.81;5039484;28;20017;-68
2023/06/28 02:32:11;;;;;;;11.30;6.53;;;;;;;16.10;nan;100395.69;5034965;28;20602;-69
2023/06/28 02:34:37;;;;;;;13.27;7.03;;;;;;;16.15;nan;100406.31;5036624;28;20443;-68
2023/06/28 02:37:02;;;;;;;15.60;7.78;;;;;;;16.09;nan;100391.41;5036821;28;20020;-68
2023/06/28 02:39:28;;;;;;;13.70;7.03;;;;;;;16.09;nan;100410.81;5037697;28;20112;-68
2023/06/28 02:41:53;;;;;;;13.68;6.72;;;;;;;16.06;nan;100407.88;5036143;28;20022;-68
2023/06/28 02:44:19;;;;;;;12.35;6.72;;;;;;;16.13;nan;100411.88;5038161;28;20040;-69
2023/06/28 02:46:45;;;;;;;12.70;6.95;;;;;;;16.14;nan;100408.19;5035229;28;20091;-68
2023/06/28 02:49:10;;;;;;;11.00;7.32;;;;;;;16.05;nan;100391.16;5035550;28;20009;-68
2023/06/28 02:51:36;;;;;;;11.38;6.88;;;;;;;16.12;nan;100398.88;5038743;28;20368;-68
2023/06/28 02:54:01;;;;;;;10.10;7.30;;;;;;;16.13;nan;100416.41;5036692;28;20021;-69
2023/06/28 02:56:28;;;;;;;11.15;6.88;;;;;;;16.13;nan;100416.41;5034932;28;20137;-68
2023/06/28 02:58:53;;;;;;;10.80;7.70;;;;;;;16.09;nan;100410.81;5036608;28;20472;-68
2023/06/28 03:01:21;;;;;;;16.80;7.38;;;;;;;16.03;nan;100395.91;5037266;28;20021;-68
2023/06/28 03:03:48;;;;;;;18.17;7.40;;;;;;;16.00;nan;100390.34;5034724;28;20033;-68
2023/06/28 03:06:14;;;;;;;16.58;7.43;;;;;;;16.02;nan;100390.84;5035243;28;20017;-69
2023/06/28 03:08:40;;;;;;;13.95;7.03;;;;;;;16.07;nan;100402.31;5039185;28;20490;-68
2023/06/28 03:11:06;;;;;;;13.52;7.85;;;;;;;16.03;nan;100390.59;5037638;28;20053;-69
2023/06/28 03:13:33;;;;;;;11.45;7.28;;;;;;;16.05;nan;100396.44;5032836;28;20024;-68
2023/06/28 03:15:58;;;;;;;13.98;7.47;;;;;;;16.03;nan;100390.59;5036385;28;20017;-69
2023/06/28 03:18:24;;;;;;;13.20;8.38;;;;;;;15.88;nan;100372.75;5043152;28;20083;-69
2023/06/28 03:20:49;;;;;;;12.80;8.70;;;;;;;15.98;nan;100387.94;5034381;28;20048;-70
2023/06/28 03:23:14;;;;;;;18.23;7.88;;;;;;;16.05;nan;100404.44;5041363;28;20814;-70
2023/06/28 03:25:40;;;;;;;15.77;8.63;;;;;;;15.99;nan;100400.13;5034635;28;20021;-69
2023/06/28 03:28:05;;;;;;;11.98;8.05;;;;;;;16.03;nan;100405.75;5035504;28;20527;-69
2023/06/28 03:30:31;;;;;;;12.02;8.23;;;;;;;15.98;nan;100401.22;5034549;28;20111;-68
2023/06/28 03:32:56;;;;;;;14.80;8.13;;;;;;;16.03;nan;100408.41;5044569;28;20017;-69
2023/06/28 03:35:21;;;;;;;15.23;8.15;;;;;;;15.98;nan;100403.06;5033955;28;20016;-69
2023/06/28 03:37:51;;;;;;;16.52;8.38;;;;;;;16.01;nan;100413.16;5035666;28;20067;-70
2023/06/28 03:40:17;;;;;;;11.90;8.18;;;;;;;15.99;nan;100432.00;5036586;28;20049;-70
2023/06/28 03:42:42;;;;;;;13.02;8.32;;;;;;;15.97;nan;100417.41;5038210;28;20052;-70
2023/06/28 03:45:08;;;;;;;13.32;9.25;;;;;;;15.94;nan;100408.88;5035856;28;20029;-70
2023/06/28 03:47:33;;;;;;;20.98;8.48;;;;;;;15.94;nan;100414.19;5037165;28;20016;-70
2023/06/28 03:49:58;;;;;;;13.30;8.53;;;;;;;15.95;nan;100409.72;5036202;28;20024;-69
2023/06/28 03:52:24;;;;;;;14.98;8.73;;;;;;;16.02;nan;100423.53;5036945;28;20254;-70
2023/06/28 03:54:49;;;;;;;17.92;8.60;;;;;;;16.02;nan;100425.38;5039347;28;20018;-70
2023/06/28 03:57:14;;;;;;;17.02;8.40;;;;;;;16.00;nan;100423.00;5033242;28;20196;-70
2023/06/28 03:59:40;;;;;;;17.80;8.63;;;;;;;15.98;nan;100426.97;5036875;28;20114;-70
2023/06/28 04:02:05;;;;;;;19.85;8.82;;;;;;;16.01;nan;100434.41;5034847;28;20044;-70
2023/06/28 04:04:31;;;;;;;18.60;12.77;;;;;;;15.97;nan;100428.84;5036503;28;20064;-70
2023/06/28 04:06:57;;;;;;;28.08;18.88;;;;;;;16.10;nan;100427.56;5037292;28;20403;-69
2023/06/28 04:09:22;;;;;;;16.20;9.35;;;;;;;16.06;nan;100413.19;5038385;28;20017;-70
2023/06/28 04:11:47;;;;;;;14.20;9.15;;;;;;;16.06;nan;100413.19;5037243;28;20013;-70
2023/06/28 04:14:13;;;;;;;15.45;8.77;;;;;;;16.06;nan;100421.16;5037906;28;20480;-70
2023/06/28 04:16:38;;;;;;;19.80;9.20;;;;;;;16.05;nan;100431.00;5033868;28;20017;-70
2023/06/28 04:19:05;;;;;;;20.25;9.48;;;;;;;15.98;nan;100429.63;5034140;28;20093;-70
2023/06/28 04:21:30;;;;;;;22.50;9.65;;;;;;;16.07;nan;100447.47;5035110;28;20036;-70
2023/06/28 04:23:55;;;;;;;17.67;8.68;;;;;;;16.08;nan;100445.59;5035387;28;20037;-70
2023/06/28 04:26:21;;;;;;;17.10;9.10;;;;;;;16.06;nan;100445.06;5033546;28;20032;-70
2023/06/28 04:28:46;;;;;;;19.73;9.48;;;;;;;16.02;nan;100420.88;5035238;28;20510;-70
2023/06/28 04:31:12;;;;;;;15.77;9.43;;;;;;;16.13;nan;100443.75;5035541;28;20021;-70
2023/06/28 04:33:37;;;;;;;15.40;9.23;;;;;;;16.10;nan;100436.31;5035213;28;20021;-70
2023/06/28 04:36:03;;;;;;;18.83;9.60;;;;;;;16.14;nan;100432.09;5039986;28;20024;-70
2023/06/28 04:38:31;;;;;;;15.18;9.52;;;;;;;16.20;nan;100445.38;5033075;28;20013;-69
2023/06/28 04:40:56;;;;;;;13.02;8.50;;;;;;;16.20;nan;100432.09;5066710;28;20037;-68
2023/06/28 04:43:23;;;;;;;14.60;9.00;;;;;;;16.23;nan;100442.97;5032109;28;20033;-69
2023/06/28 04:45:48;;;;;;;16.40;8.98;;;;;;;16.17;nan;100444.84;5035001;28;20030;-70
2023/06/28 04:48:14;;;;;;;17.38;9.52;;;;;;;16.20;nan;100438.19;5032981;28;20021;-70
2023/06/28 04:50:39;;;;;;;15.05;9.38;;;;;;;16.22;nan;100444.06;5031603;28;20025;-70
2023/06/28 04:53:06;;;;;;;13.50;8.85;;;;;;;16.27;nan;100443.28;5033872;28;20045;-70
2023/06/28 04:55:32;;;;;;;17.55;9.75;;;;;;;16.22;nan;100432.63;5033918;28;20013;-70
2023/06/28 04:58:05;;;;;;;16.90;9.48;;;;;;;16.29;nan;100441.94;5033175;28;20021;-70
2023/06/28 05:00:32;;;;;;;16.33;9.93;;;;;;;16.31;nan;100431.88;5034123;28;20028;-70
2023/06/28 05:02:59;;;;;;;18.02;9.43;;;;;;;16.31;nan;100434.53;5032935;28;20051;-70
2023/06/28 05:05:26;;;;;;;19.60;9.90;;;;;;;16.34;nan;100433.19;5035386;28;20124;-71
2023/06/28 05:07:53;;;;;;;18.52;10.27;;;;;;;16.15;nan;100406.31;5033547;28;20013;-70
2023/06/28 05:10:19;;;;;;;20.90;10.55;;;;;;;16.36;nan;100431.88;5034016;28;20049;-70
2023/06/28 05:12:45;;;;;;;18.17;10.93;;;;;;;16.29;nan;100423.34;5042410;28;20021;-70
2023/06/28 05:15:10;;;;;;;15.65;9.75;;;;;;;16.33;nan;100427.09;5033153;28;20024;-70
2023/06/28 05:17:36;;;;;;;17.02;10.13;;;;;;;16.32;nan;100424.69;5035413;28;20139;-71
2023/06/28 05:20:01;;;;;;;21.48;10.00;;;;;;;16.38;nan;100426.31;5033186;28;20369;-70
2023/06/28 05:22:27;;;;;;;19.35;10.38;;;;;;;16.42;nan;100426.56;5033901;28;20074;-69
2023/06/28 05:24:53;;;;;;;13.70;9.90;;;;;;;16.49;nan;100432.44;5033362;28;20491;-69
2023/06/28 05:27:20;;;;;;;14.23;10.43;;;;;;;16.44;nan;100413.81;5034189;28;20079;-68
2023/06/28 05:29:45;;;;;;;15.60;10.25;;;;;;;16.51;nan;100411.69;5032835;28;20476;-68
2023/06/28 05:32:13;;;;;;;19.52;10.43;;;;;;;16.57;nan;100431.94;5033665;28;20033;-68
2023/06/28 05:34:39;;;;;;;14.82;10.27;;;;;;;16.57;nan;100424.75;5034070;28;20028;-68
2023/06/28 05:37:04;;;;;;;18.10;10.57;;;;;;;16.62;nan;100423.13;5035265;28;20021;-68
2023/06/28 05:39:30;;;;;;;18.65;10.43;;;;;;;16.63;nan;100414.09;5064719;28;20160;-69
2023/06/28 05:41:55;;;;;;;17.70;9.98;;;;;;;16.61;nan;100401.06;5035347;28;20033;-69
2023/06/28 05:44:21;;;;;;;17.83;10.63;;;;;;;16.69;nan;100413.03;5038076;28;20530;-67
2023/06/28 05:46:46;;;;;;;17.48;10.82;;;;;;;16.74;nan;100411.19;5038735;28;20462;-69
2023/06/28 05:49:12;;;;;;;25.73;11.13;;;;;;;16.77;nan;100415.97;5069294;28;20014;-69
2023/06/28 05:51:37;;;;;;;22.58;11.05;;;;;;;16.73;nan;100406.13;5037494;28;20420;-69
2023/06/28 05:54:03;;;;;;;13.80;9.73;;;;;;;16.77;nan;100413.31;5037456;28;20052;-68
2023/06/28 05:56:29;;;;;;;16.10;9.43;;;;;;;16.89;nan;100422.94;5038655;28;20025;-69
2023/06/28 05:58:56;;;;;;;17.20;10.60;;;;;;;16.82;nan;100423.19;5037092;28;20921;-69
2023/06/28 06:01:25;;;;;;;19.10;11.00;;;;;;;16.86;nan;100436.78;5037605;28;20451;-69
2023/06/28 06:03:51;;;;;;;15.43;10.27;;;;;;;16.89;nan;100439.69;5045650;28;20565;-69
2023/06/28 06:06:17;;;;;;;33.92;24.95;;;;;;;16.91;nan;100444.75;5038647;28;20059;-68
2023/06/28 06:08:43;;;;;;;22.48;11.52;;;;;;;16.97;nan;100452.44;5041915;28;20025;-68
2023/06/28 06:11:08;;;;;;;16.67;10.07;;;;;;;16.92;nan;100446.34;5038644;28;20049;-68
2023/06/28 06:13:34;;;;;;;18.92;10.38;;;;;;;17.13;nan;100463.88;5068774;28;20041;-68
2023/06/28 06:15:59;;;;;;;14.93;9.63;;;;;;;16.93;nan;100438.09;5037410;28;20004;-68
2023/06/28 06:18:25;;;;;;;19.63;10.20;;;;;;;17.00;nan;100451.13;5039768;28;20029;-69
2023/06/28 06:20:51;;;;;;;17.05;10.60;;;;;;;16.93;nan;100451.41;5036358;28;20379;-69
2023/06/28 06:23:17;;;;;;;16.65;10.50;;;;;;;17.00;nan;100459.13;5037324;28;20063;-69
2023/06/28 06:25:43;;;;;;;16.73;10.00;;;;;;;16.97;nan;100465.75;5067702;28;20037;-69
2023/06/28 06:28:08;;;;;;;17.48;10.75;;;;;;;16.97;nan;100467.59;5037322;28;20029;-69
2023/06/28 06:30:34;;;;;;;18.77;11.10;;;;;;;17.01;nan;100468.69;5071933;28;20044;-69
2023/06/28 06:32:59;;;;;;;13.10;9.93;;;;;;;17.05;nan;100480.41;5036796;28;20029;-69
2023/06/28 06:35:26;;;;;;;18.70;10.43;;;;;;;17.12;nan;100477.44;5037795;28;20021;-69
2023/06/28 06:37:51;;;;;;;21.65;10.70;;;;;;;17.09;nan;100470.00;5039142;28;20021;-69
2023/06/28 06:40:17;;;;;;;21.23;10.18;;;;;;;17.14;nan;100467.34;5038497;28;20410;-69
2023/06/28 06:42:42;;;;;;;23.42;10.13;;;;;;;17.13;nan;100469.22;5038208;28;20016;-68
2023/06/28 06:45:08;;;;;;;16.50;9.77;;;;;;;17.13;nan;100461.22;5033801;28;20154;-68
2023/06/28 06:47:37;;;;;;;15.35;10.10;;;;;;;17.16;nan;100463.34;5035152;28;20037;-69
2023/06/28 06:50:02;;;;;;;17.73;9.50;;;;;;;17.19;nan;100462.84;5038107;28;20041;-69
2023/06/28 06:52:28;;;;;;;16.65;9.93;;;;;;;17.21;nan;100471.34;5036355;28;20053;-69
2023/06/28 06:54:53;;;;;;;20.35;9.85;;;;;;;17.27;nan;100476.66;5034093;28;20075;-69
2023/06/28 06:57:19;;;;;;;14.75;9.57;;;;;;;17.32;nan;100480.13;5036075;28;20026;-70
2023/06/28 06:59:44;;;;;;;15.80;9.45;;;;;;;17.36;nan;100480.38;5037369;28;20029;-69
2023/06/28 07:02:09;;;;;;;12.88;9.65;;;;;;;17.38;nan;100489.69;5035164;28;20101;-70
2023/06/28 07:04:35;;;;;;;15.90;9.35;;;;;;;17.40;nan;100484.09;5036009;28;20752;-70
2023/06/28 07:07:00;;;;;;;17.67;9.55;;;;;;;17.45;nan;100478.75;5038453;28;20028;-68
2023/06/28 07:09:28;;;;;;;16.30;9.50;;;;;;;17.43;nan;100475.59;5037440;28;20104;-67
2023/06/28 07:11:53;;;;;;;18.00;9.80;;;;;;;17.48;nan;100478.25;5043215;28;20026;-68
2023/06/28 07:14:19;;;;;;;18.48;11.40;;;;;;;17.50;nan;100480.63;5037619;28;20020;-69
2023/06/28 07:16:45;;;;;;;13.20;8.82;;;;;;;17.52;nan;100476.63;5037050;28;20368;-68
2023/06/28 07:19:11;;;;;;;21.27;9.45;;;;;;;17.58;nan;100477.41;5034591;28;20013;-68
2023/06/28 07:21:37;;;;;;;13.10;9.10;;;;;;;17.59;nan;100481.66;5039022;28;20034;-69
2023/06/28 07:24:02;;;;;;;19.67;10.13;;;;;;;17.57;nan;100481.13;5034166;28;20033;-69
2023/06/28 07:26:28;;;;;;;18.83;9.73;;;;;;;17.56;nan;100483.00;5033805;28;20088;-67
2023/06/28 07:28:54;;;;;;;17.15;9.10;;;;;;;17.54;nan;100471.81;5035754;28;20036;-69
2023/06/28 07:31:20;;;;;;;21.98;9.77;;;;;;;17.65;nan;100489.38;5039209;28;20071;-69
2023/06/28 07:33:45;;;;;;;14.07;8.50;;;;;;;17.63;nan;100478.19;5038445;28;20489;-68
2023/06/28 07:36:11;;;;;;;14.60;9.13;;;;;;;17.78;nan;100497.88;5038286;28;20024;-70
2023/06/28 07:38:36;;;;;;;17.02;9.45;;;;;;;17.80;nan;100507.22;5038200;28;20044;-71
2023/06/28 07:41:02;;;;;;;15.98;9.15;;;;;;;17.58;nan;100488.06;5040762;28;20032;-71
2023/06/28 07:43:27;;;;;;;19.67;9.85;;;;;;;17.81;nan;100524.00;5034051;28;20029;-72
2023/06/28 07:45:53;;;;;;;16.42;9.50;;;;;;;17.79;nan;100515.44;5044108;28;20104;-69
2023/06/28 07:48:19;;;;;;;22.25;10.90;;;;;;;17.75;nan;100514.41;5036198;28;20052;-69
2023/06/28 07:50:47;;;;;;;19.25;9.63;;;;;;;17.78;nan;100535.16;5035810;28;20032;-72
2023/06/28 07:53:12;;;;;;;18.90;9.00;;;;;;;17.78;nan;100527.97;5038006;28;20843;-70
2023/06/28 07:55:38;;;;;;;19.45;9.00;;;;;;;17.68;nan;100511.22;5033978;28;20024;-70
2023/06/28 07:58:03;;;;;;;13.65;9.57;;;;;;;17.70;nan;100511.75;5064181;28;20097;-70
2023/06/28 08:00:30;;;;;;;16.80;9.07;;;;;;;17.76;nan;100510.66;5036420;28;20048;-73
2023/06/28 08:02:56;;;;;;;16.42;9.30;;;;;;;17.80;nan;100503.75;5036844;28;20063;-73
2023/06/28 08:05:21;;;;;;;17.90;9.10;;;;;;;17.75;nan;100509.06;5035693;28;20061;-73
2023/06/28 08:07:48;;;;;;;19.40;9.68;;;;;;;17.52;nan;100491.81;5034013;28;20536;-70
2023/06/28 08:10:13;;;;;;;14.80;9.65;;;;;;;17.74;nan;100526.94;5035763;28;20076;-70
2023/06/28 08:12:38;;;;;;;19.73;9.45;;;;;;;17.70;nan;100535.72;5035586;28;20443;-71
2023/06/28 08:15:04;;;;;;;14.48;9.02;;;;;;;17.73;nan;100533.31;5035614;28;20387;-70
2023/06/28 08:17:30;;;;;;;17.42;9.52;;;;;;;17.69;nan;100528.78;5037578;28;20021;-71
2023/06/28 08:19:55;;;;;;;18.80;9.43;;;;;;;17.69;nan;100529.56;5040588;28;20030;-70
2023/06/28 08:22:21;;;;;;;16.33;9.75;;;;;;;17.73;nan;100522.66;5034404;28;20108;-71
2023/06/28 08:24:47;;;;;;;20.48;10.23;;;;;;;17.74;nan;100540.25;5033754;28;20065;-71
2023/06/28 08:27:13;;;;;;;15.32;9.50;;;;;;;17.79;nan;100548.22;5035497;28;20041;-71
2023/06/28 08:29:38;;;;;;;19.73;9.57;;;;;;;17.76;nan;100553.28;5037835;28;20593;-71
2023/06/28 08:32:04;;;;;;;13.55;8.77;;;;;;;17.85;nan;100562.34;5035924;28;20017;-71
2023/06/28 08:34:29;;;;;;;14.65;9.35;;;;;;;17.75;nan;100563.13;5035631;28;20020;-72
2023/06/28 08:36:54;;;;;;;18.55;9.48;;;;;;;17.82;nan;100585.00;5034385;28;20026;-71
2023/06/28 08:39:20;;;;;;;15.27;9.50;;;;;;;17.76;nan;100591.34;5034365;28;20043;-71
2023/06/28 08:41:45;;;;;;;20.67;10.27;;;;;;;17.80;nan;100591.63;5033755;28;20124;-70
2023/06/28 08:44:13;;;;;;;16.13;9.35;;;;;;;17.75;nan;100599.63;5036483;28;20067;-70
2023/06/28 08:46:44;;;;;;;17.85;8.80;;;;;;;17.77;nan;100600.19;5036108;28;20116;-70
2023/06/28 08:49:13;;;;;;;20.38;9.80;;;;;;;17.72;nan;100582.31;5037366;28;20044;-71
2023/06/28 08:51:39;;;;;;;16.48;8.75;;;;;;;17.79;nan;100595.34;5037368;28;20021;-70
2023/06/28 08:54:07;;;;;;;18.55;9.10;;;;;;;17.84;nan;100609.50;5033945;28;20061;-70
2023/06/28 08:56:32;;;;;;;14.57;9.15;;;;;;;17.86;nan;100609.22;5033051;28;20018;-71
2023/06/28 08:58:58;;;;;;;15.75;8.68;;;;;;;17.72;nan;100597.50;5033034;28;20025;-70
2023/06/28 09:01:24;;;;;;;12.70;8.43;;;;;;;17.84;nan;100619.38;5033857;28;20036;-72
2023/06/28 09:03:50;;;;;;;14.20;8.88;;;;;;;17.79;nan;100606.00;5051097;28;20041;-72
2023/06/28 09:06:16;;;;;;;15.35;7.80;;;;;;;17.76;nan;100619.88;5037967;28;20479;-70
2023/06/28 09:08:43;;;;;;;18.05;8.50;;;;;;;17.79;nan;100629.97;5034167;28;20528;-72
2023/06/28 09:11:10;;;;;;;14.65;8.35;;;;;;;17.81;nan;100625.22;5033354;28;20077;-72
2023/06/28 09:13:37;;;;;;;14.00;8.70;;;;;;;17.81;nan;100633.22;5034140;28;20021;-69
2023/06/28 09:16:05;;;;;;;14.85;8.18;;;;;;;17.77;nan;100629.47;5035895;28;20021;-73
2023/06/28 09:18:30;;;;;;;15.50;8.93;;;;;;;17.81;nan;100636.69;5034366;28;20021;-69
2023/06/28 09:20:56;;;;;;;13.68;8.80;;;;;;;17.81;nan;100634.03;5034390;28;20075;-71
2023/06/28 09:23:26;;;;;;;13.77;8.77;;;;;;;17.75;nan;100634.25;5039856;28;20025;-71
2023/06/28 09:25:52;;;;;;;18.15;9.23;;;;;;;17.74;nan;100630.81;5058289;28;20021;-73
2023/06/28 09:28:19;;;;;;;14.77;9.52;;;;;;;17.74;nan;100633.47;5041105;28;20040;-69
2023/06/28 09:30:51;;;;;;;14.60;9.50;;;;;;;17.72;nan;100642.75;5039618;28;20104;-72
2023/06/28 09:33:18;;;;;;;16.15;10.68;;;;;;;17.71;nan;100644.63;5036579;28;20517;-72
2023/06/28 09:35:43;;;;;;;19.45;10.90;;;;;;;17.69;nan;100637.97;5040750;28;20013;-72
2023/06/28 09:38:09;;;;;;;16.23;9.48;;;;;;;17.41;nan;100589.53;5039511;28;20434;-72
2023/06/28 09:40:35;;;;;;;15.02;9.77;;;;;;;17.73;nan;100647.84;5036704;28;20090;-69
2023/06/28 09:43:01;;;;;;;17.80;10.18;;;;;;;17.69;nan;100640.66;5043011;28;20029;-71
2023/06/28 09:45:28;;;;;;;16.58;10.55;;;;;;;17.69;nan;100637.97;5036745;28;20029;-72
2023/06/28 09:48:02;;;;;;;18.05;10.88;;;;;;;17.67;nan;100624.13;5037229;28;20736;-71
2023/06/28 09:50:38;;;;;;;18.17;10.40;;;;;;;17.68;nan;100631.84;5038948;28;20067;-69
2023/06/28 09:53:10;;;;;;;19.05;11.70;;;;;;;17.77;nan;100643.59;5040513;28;20071;-72
2023/06/28 09:55:40;;;;;;;19.30;10.57;;;;;;;17.74;nan;100624.66;5038188;28;20388;-71
2023/06/28 09:58:09;;;;;;;14.20;11.35;;;;;;;17.79;nan;100645.97;5039489;28;20031;-71
2023/06/28 10:00:37;;;;;;;13.38;10.48;;;;;;;17.80;nan;100639.59;5038761;28;20443;-71
2023/06/28 10:03:05;;;;;;;17.27;11.05;;;;;;;17.81;nan;100638.53;5038336;28;20067;-71
2023/06/28 10:05:32;;;;;;;18.10;11.73;;;;;;;17.87;nan;100642.03;5039012;28;20430;-71
2023/06/28 10:07:59;;;;;;;17.88;11.57;;;;;;;17.83;nan;100629.22;5037414;28;20029;-71
2023/06/28 10:10:25;;;;;;;19.80;10.90;;;;;;;17.90;nan;100636.16;5037053;28;20065;-71
2023/06/28 10:12:53;;;;;;;19.35;10.60;;;;;;;17.92;nan;100631.34;5036214;28;20040;-71
2023/06/28 10:15:23;;;;;;;15.52;10.10;;;;;;;17.94;nan;100619.34;5037427;28;20017;-71
2023/06/28 10:17:50;;;;;;;24.95;11.80;;;;;;;17.95;nan;100596.97;5037758;28;20108;-71
2023/06/28 10:20:16;;;;;;;20.83;10.63;;;;;;;18.02;nan;100588.69;5038648;28;20025;-71
2023/06/28 10:22:43;;;;;;;17.48;10.18;;;;;;;17.97;nan;100554.88;5036740;28;20028;-71
2023/06/28 10:25:09;;;;;;;11.77;8.25;;;;;;;18.07;nan;100554.84;5035875;28;20029;-71
2023/06/28 10:27:35;;;;;;;12.07;8.18;;;;;;;18.09;nan;100556.44;5039741;28;20009;-71
2023/06/28 10:30:00;;;;;;;13.70;8.98;;;;;;;17.96;nan;100523.97;5039471;28;20021;-71
2023/06/28 10:32:27;;;;;;;12.07;8.68;;;;;;;18.21;nan;100549.72;5038866;28;20426;-71
2023/06/28 10:34:54;;;;;;;11.25;8.07;;;;;;;18.14;nan;100543.09;5042488;28;20017;-71
2023/06/28 10:37:23;;;;;;;15.60;8.77;;;;;;;18.18;nan;100544.16;5036584;28;20028;-71
2023/06/28 10:39:52;;;;;;;;;;;;;;;18.25;nan;100552.66;5038827;28;20479;-71
2023/06/28 10:42:18;;;;;;;;;;;;;;;18.32;nan;100571.03;5040231;28;19924;-71
2023/06/28 10:44:54;;;;;;;10.65;7.18;;;;;;;18.41;nan;100572.06;5038715;28;19917;-71
2023/06/28 10:47:19;;;;;;;11.20;7.00;;;;;;;18.48;nan;100576.03;5036486;28;20068;-71
2023/06/28 10:50:08;;;;;;;10.50;6.47;;;;;;;18.56;nan;100588.00;5043609;28;20025;-71
2023/06/28 10:52:35;;;;;;;12.68;7.00;;;;;;;18.64;nan;100584.75;5037405;28;20040;-71
2023/06/28 10:55:01;;;;;;;9.90;6.65;;;;;;;18.66;nan;100582.63;5038136;28;20032;-71
2023/06/28 10:57:37;;;;;;;6.78;6.03;;;;;;;18.72;nan;100583.38;5035280;28;20045;-71
2023/06/28 11:00:10;;;;;;;7.22;5.18;;;;;;;18.67;nan;100556.72;5036738;28;20357;-70
2023/06/28 11:02:59;;;;;;;11.15;5.50;;;;;;;18.71;nan;100563.91;5034586;28;20017;-71
2023/06/28 11:05:55;;;;;;;6.32;4.60;;;;;;;18.84;nan;100570.56;5035190;28;20049;-71
2023/06/28 11:08:34;;;;;;;8.10;3.95;;;;;;;18.89;nan;100562.53;5036108;28;20021;-71
2023/06/28 11:11:00;;;;;;;8.48;3.38;;;;;;;18.80;nan;100544.72;5037038;28;20072;-70
2023/06/28 11:13:48;;;;;;;6.88;3.80;;;;;;;19.08;nan;100568.00;5035686;28;20055;-71
2023/06/28 11:16:22;;;;;;;5.55;3.38;;;;;;;19.13;nan;100559.19;5036401;28;20506;-71
2023/06/28 11:18:48;;;;;;;5.75;3.20;;;;;;;19.28;nan;100561.72;5035853;28;20064;-71
2023/06/28 11:21:24;;;;;;;11.10;5.35;;;;;;;19.41;nan;100559.47;5037297;28;20079;-71
2023/06/28 11:23:54;;;;;;;6.80;3.25;;;;;;;19.48;nan;100557.28;5034166;28;20033;-71
2023/06/28 11:26:37;;;;;;;8.05;3.70;;;;;;;19.65;nan;100543.50;5035392;28;20017;-71
2023/06/28 11:29:16;;;;;;;7.05;3.40;;;;;;;19.76;nan;100537.81;5035641;28;20029;-71
2023/06/28 11:31:49;;;;;;;6.68;3.05;;;;;;;19.94;nan;100532.81;5034437;28;20019;-71